Minchumina, Alaska
Current Conditions -  °F | °C
As of 6:52 PM on Thursday 18 Dec 2014 (Local Time) from PATA Reporting Station
Clear Clear  
Wind Chill: -9°   Ceiling: Unl
Heat Index:   Visibility: 10mi
Dew Point: -3°   Wind: 5mph
Humidity: 83%   Direction: 340°NNW
Pressure: 29.61"   Gusts: NA
Location:  63.9°N, 152.27°W
Report Text: PATA 190352Z 34004KT 10SM CLR M17/M19 A2961 RMK AO2 SLP032 I1000 T11721194
Loading
Personal Weather Stations






























Interactive Weather Map New forecast layout! Learn more

10-Day Weather Forecast

Advertisements
Track Severe Weather on mobile